KAUO/AUO METAR and TAF weather

Enter ICAO airport designator
Station Type Date Time Source
KAUO METAR 2019/12/14 06:14 UTC NOAA

KAUO 140614Z AUTO 29003KT 1SM BR OVC003 07/07 A2975 RMK AO2


Station Type Date Time Source
KAUO Decoded METAR 2019/12/14 06:14 UTC NOAA

Auburn-Opelika Airport, AL, United States (KAUO) 32-37N 085-26W
Dec 14, 2019 - 01:14 AM EST / 2019.12.14 0614 UTC
Wind: from the WNW (290 degrees) at 3 MPH (3 KT):0
Visibility: 1 mile(s):0
Sky conditions: overcast
Weather: mist
Temperature: 44 F (7 C)
Dew Point: 44 F (7 C)
Relative Humidity: 100%
Pressure (altimeter): 29.75 in. Hg (1007 hPa)
ob: KAUO 140614Z AUTO 29003KT 1SM BR OVC003 07/07 A2975 RMK AO2
cycle: 6

Station Type Date Time Source
KAUO TAF UTC NOAA

Error!

Example: see airport list